sensor_id;sensor_type;location;lat;lon;timestamp;temperature;humidity
36586;DHT22;22591;48.314;11.562;2023-02-13T00:02:19;2.10;99.90
36586;DHT22;22591;48.314;11.562;2023-02-13T00:04:44;2.10;99.90
36586;DHT22;22591;48.314;11.562;2023-02-13T00:07:12;2.10;99.90
36586;DHT22;22591;48.314;11.562;2023-02-13T00:09:37;2.00;99.90
36586;DHT22;22591;48.314;11.562;2023-02-13T00:12:04;2.00;99.90
36586;DHT22;22591;48.314;11.562;2023-02-13T00:14:33;1.90;99.90
36586;DHT22;22591;48.314;11.562;2023-02-13T00:16:58;2.00;99.90
36586;DHT22;22591;48.314;11.562;2023-02-13T00:19:24;1.90;99.90
36586;DHT22;22591;48.314;11.562;2023-02-13T00:21:49;1.90;99.90
36586;DHT22;22591;48.314;11.562;2023-02-13T00:24:15;1.90;99.90
36586;DHT22;22591;48.314;11.562;2023-02-13T00:26:40;1.90;99.90
36586;DHT22;22591;48.314;11.562;2023-02-13T00:29:06;1.80;99.90
36586;DHT22;22591;48.314;11.562;2023-02-13T00:31:31;1.90;99.90
36586;DHT22;22591;48.314;11.562;2023-02-13T00:33:57;1.80;99.90
36586;DHT22;22591;48.314;11.562;2023-02-13T00:36:23;1.70;99.90
36586;DHT22;22591;48.314;11.562;2023-02-13T00:38:49;1.70;99.90
36586;DHT22;22591;48.314;11.562;2023-02-13T00:41:15;1.70;99.90
36586;DHT22;22591;48.314;11.562;2023-02-13T00:43:44;1.70;99.90
36586;DHT22;22591;48.314;11.562;2023-02-13T00:46:10;1.90;99.90
36586;DHT22;22591;48.314;11.562;2023-02-13T00:48:35;1.70;99.90
36586;DHT22;22591;48.314;11.562;2023-02-13T00:51:01;1.70;99.90
36586;DHT22;22591;48.314;11.562;2023-02-13T00:53:27;1.60;99.90
36586;DHT22;22591;48.314;11.562;2023-02-13T00:55:53;1.60;99.90
36586;DHT22;22591;48.314;11.562;2023-02-13T00:58:20;1.60;99.90
36586;DHT22;22591;48.314;11.562;2023-02-13T01:00:46;1.50;99.90
36586;DHT22;22591;48.314;11.562;2023-02-13T01:03:15;1.50;99.90
36586;DHT22;22591;48.314;11.562;2023-02-13T01:05:42;1.60;99.90
36586;DHT22;22591;48.314;11.562;2023-02-13T01:08:09;1.50;99.90
36586;DHT22;22591;48.314;11.562;2023-02-13T01:10:37;1.50;99.90
36586;DHT22;22591;48.314;11.562;2023-02-13T01:13:03;1.50;99.90
36586;DHT22;22591;48.314;11.562;2023-02-13T01:15:29;1.50;99.90
36586;DHT22;22591;48.314;11.562;2023-02-13T01:17:55;1.50;99.90
36586;DHT22;22591;48.314;11.562;2023-02-13T01:20:22;1.50;99.90
36586;DHT22;22591;48.314;11.562;2023-02-13T01:22:48;1.50;99.90
36586;DHT22;22591;48.314;11.562;2023-02-13T01:25:14;1.50;99.90
36586;DHT22;22591;48.314;11.562;2023-02-13T01:27:40;1.50;99.90
36586;DHT22;22591;48.314;11.562;2023-02-13T01:30:06;1.40;99.90
36586;DHT22;22591;48.314;11.562;2023-02-13T01:32:38;1.40;99.90
36586;DHT22;22591;48.314;11.562;2023-02-13T01:35:04;1.40;99.90
36586;DHT22;22591;48.314;11.562;2023-02-13T01:37:30;1.50;99.90
36586;DHT22;22591;48.314;11.562;2023-02-13T01:39:56;1.40;99.90
36586;DHT22;22591;48.314;11.562;2023-02-13T01:42:25;1.40;99.90
36586;DHT22;22591;48.314;11.562;2023-02-13T01:44:53;1.40;99.90
36586;DHT22;22591;48.314;11.562;2023-02-13T01:47:41;1.40;99.90
36586;DHT22;22591;48.314;11.562;2023-02-13T01:52:54;1.50;99.90
36586;DHT22;22591;48.314;11.562;2023-02-13T01:55:22;1.50;99.90
36586;DHT22;22591;48.314;11.562;2023-02-13T01:57:57;1.50;99.90
36586;DHT22;22591;48.314;11.562;2023-02-13T02:00:26;1.50;99.90
36586;DHT22;22591;48.314;11.562;2023-02-13T02:02:59;1.50;99.90
36586;DHT22;22591;48.314;11.562;2023-02-13T02:05:27;1.60;99.90
36586;DHT22;22591;48.314;11.562;2023-02-13T02:07:55;1.50;99.90
36586;DHT22;22591;48.314;11.562;2023-02-13T02:10:23;1.50;99.90
36586;DHT22;22591;48.314;11.562;2023-02-13T02:12:54;1.50;99.90
36586;DHT22;22591;48.314;11.562;2023-02-13T02:15:23;1.60;99.90
36586;DHT22;22591;48.314;11.562;2023-02-13T02:17:49;1.50;99.90
36586;DHT22;22591;48.314;11.562;2023-02-13T02:26:32;1.50;99.90
36586;DHT22;22591;48.314;11.562;2023-02-13T02:34:42;1.40;99.90
36586;DHT22;22591;48.314;11.562;2023-02-13T02:43:24;1.20;99.90
36586;DHT22;22591;48.314;11.562;2023-02-13T02:46:13;1.20;99.90
36586;DHT22;22591;48.314;11.562;2023-02-13T02:52:04;1.20;99.90
36586;DHT22;22591;48.314;11.562;2023-02-13T02:54:43;1.20;99.90
36586;DHT22;22591;48.314;11.562;2023-02-13T02:57:30;1.20;99.90
36586;DHT22;22591;48.314;11.562;2023-02-13T03:00:17;1.20;99.90
36586;DHT22;22591;48.314;11.562;2023-02-13T03:03:04;1.20;99.90
36586;DHT22;22591;48.314;11.562;2023-02-13T03:05:53;1.20;99.90
36586;DHT22;22591;48.314;11.562;2023-02-13T03:08:41;1.20;99.90
36586;DHT22;22591;48.314;11.562;2023-02-13T03:11:26;1.10;99.90
36586;DHT22;22591;48.314;11.562;2023-02-13T03:14:14;1.10;99.90
36586;DHT22;22591;48.314;11.562;2023-02-13T03:16:41;1.10;99.90
36586;DHT22;22591;48.314;11.562;2023-02-13T03:19:37;1.10;99.90
36586;DHT22;22591;48.314;11.562;2023-02-13T03:25:06;1.00;99.90
36586;DHT22;22591;48.314;11.562;2023-02-13T03:30:39;1.00;99.90
36586;DHT22;22591;48.314;11.562;2023-02-13T03:41:57;1.10;99.90
36586;DHT22;22591;48.314;11.562;2023-02-13T03:44:44;1.10;99.90
36586;DHT22;22591;48.314;11.562;2023-02-13T03:47:13;1.10;99.90
36586;DHT22;22591;48.314;11.562;2023-02-13T03:49:50;1.10;99.90
36586;DHT22;22591;48.314;11.562;2023-02-13T03:52:40;1.10;99.90
36586;DHT22;22591;48.314;11.562;2023-02-13T03:57:59;1.10;99.90
36586;DHT22;22591;48.314;11.562;2023-02-13T04:00:49;1.10;99.90
36586;DHT22;22591;48.314;11.562;2023-02-13T04:03:30;1.10;99.90
36586;DHT22;22591;48.314;11.562;2023-02-13T04:06:05;1.10;99.90
36586;DHT22;22591;48.314;11.562;2023-02-13T04:08:31;1.00;99.90
36586;DHT22;22591;48.314;11.562;2023-02-13T04:13:55;1.10;99.90
36586;DHT22;22591;48.314;11.562;2023-02-13T04:16:42;1.00;99.90
36586;DHT22;22591;48.314;11.562;2023-02-13T04:19:09;1.00;99.90
36586;DHT22;22591;48.314;11.562;2023-02-13T04:21:38;0.90;99.90
36586;DHT22;22591;48.314;11.562;2023-02-13T04:24:05;0.80;99.90
36586;DHT22;22591;48.314;11.562;2023-02-13T04:26:35;0.80;99.90
36586;DHT22;22591;48.314;11.562;2023-02-13T04:29:02;0.90;99.90
36586;DHT22;22591;48.314;11.562;2023-02-13T04:31:27;1.00;99.90
36586;DHT22;22591;48.314;11.562;2023-02-13T04:33:53;0.90;99.90
36586;DHT22;22591;48.314;11.562;2023-02-13T04:36:18;0.90;99.90
36586;DHT22;22591;48.314;11.562;2023-02-13T04:38:44;0.70;99.90
36586;DHT22;22591;48.314;11.562;2023-02-13T04:41:10;0.70;99.90
36586;DHT22;22591;48.314;11.562;2023-02-13T04:43:36;0.80;99.90
36586;DHT22;22591;48.314;11.562;2023-02-13T04:46:02;0.80;99.90
36586;DHT22;22591;48.314;11.562;2023-02-13T04:48:27;0.80;99.90
36586;DHT22;22591;48.314;11.562;2023-02-13T04:50:53;0.80;99.90
36586;DHT22;22591;48.314;11.562;2023-02-13T04:53:18;0.80;99.90
36586;DHT22;22591;48.314;11.562;2023-02-13T04:55:44;0.90;99.90
36586;DHT22;22591;48.314;11.562;2023-02-13T04:58:10;0.90;99.90
36586;DHT22;22591;48.314;11.562;2023-02-13T05:00:35;0.90;99.90
36586;DHT22;22591;48.314;11.562;2023-02-13T05:03:09;1.00;99.90
36586;DHT22;22591;48.314;11.562;2023-02-13T05:05:36;1.00;99.90
36586;DHT22;22591;48.314;11.562;2023-02-13T05:08:02;1.00;99.90
36586;DHT22;22591;48.314;11.562;2023-02-13T05:10:28;1.00;99.90
36586;DHT22;22591;48.314;11.562;2023-02-13T05:12:53;1.10;99.90
36586;DHT22;22591;48.314;11.562;2023-02-13T05:15:19;1.10;99.90
36586;DHT22;22591;48.314;11.562;2023-02-13T05:17:45;1.10;99.90
36586;DHT22;22591;48.314;11.562;2023-02-13T05:20:12;1.20;99.90
36586;DHT22;22591;48.314;11.562;2023-02-13T05:22:49;1.20;99.90
36586;DHT22;22591;48.314;11.562;2023-02-13T05:25:35;1.20;99.90
36586;DHT22;22591;48.314;11.562;2023-02-13T05:28:02;1.20;99.90
36586;DHT22;22591;48.314;11.562;2023-02-13T05:30:27;1.20;99.90
36586;DHT22;22591;48.314;11.562;2023-02-13T05:32:53;1.20;99.90
36586;DHT22;22591;48.314;11.562;2023-02-13T05:35:20;1.30;99.90
36586;DHT22;22591;48.314;11.562;2023-02-13T05:37:46;1.30;99.90
36586;DHT22;22591;48.314;11.562;2023-02-13T05:40:13;1.30;99.90
36586;DHT22;22591;48.314;11.562;2023-02-13T05:42:39;1.30;99.90
36586;DHT22;22591;48.314;11.562;2023-02-13T05:45:05;1.20;99.90
36586;DHT22;22591;48.314;11.562;2023-02-13T05:47:31;1.20;99.90
36586;DHT22;22591;48.314;11.562;2023-02-13T05:49:57;1.30;99.90
36586;DHT22;22591;48.314;11.562;2023-02-13T05:52:22;1.20;99.90
36586;DHT22;22591;48.314;11.562;2023-02-13T05:54:48;1.10;99.90
36586;DHT22;22591;48.314;11.562;2023-02-13T05:57:13;1.00;99.90
36586;DHT22;22591;48.314;11.562;2023-02-13T05:59:39;1.10;99.90
36586;DHT22;22591;48.314;11.562;2023-02-13T06:02:05;1.10;99.90
36586;DHT22;22591;48.314;11.562;2023-02-13T06:04:30;1.10;99.90
36586;DHT22;22591;48.314;11.562;2023-02-13T06:06:56;1.20;99.90
36586;DHT22;22591;48.314;11.562;2023-02-13T06:09:21;1.20;99.90
36586;DHT22;22591;48.314;11.562;2023-02-13T06:11:47;1.20;99.90
36586;DHT22;22591;48.314;11.562;2023-02-13T06:14:13;1.20;99.90
36586;DHT22;22591;48.314;11.562;2023-02-13T06:16:39;1.30;99.90
36586;DHT22;22591;48.314;11.562;2023-02-13T06:19:05;1.20;99.90
36586;DHT22;22591;48.314;11.562;2023-02-13T06:21:32;1.20;99.90
36586;DHT22;22591;48.314;11.562;2023-02-13T06:24:06;1.20;99.90
36586;DHT22;22591;48.314;11.562;2023-02-13T06:26:32;1.20;99.90
36586;DHT22;22591;48.314;11.562;2023-02-13T06:28:58;1.20;99.90
36586;DHT22;22591;48.314;11.562;2023-02-13T06:31:24;1.10;99.90
36586;DHT22;22591;48.314;11.562;2023-02-13T06:33:49;1.10;99.90
36586;DHT22;22591;48.314;11.562;2023-02-13T06:36:15;1.10;99.90
36586;DHT22;22591;48.314;11.562;2023-02-13T06:38:41;1.10;99.90
36586;DHT22;22591;48.314;11.562;2023-02-13T06:41:07;1.10;99.90
36586;DHT22;22591;48.314;11.562;2023-02-13T06:43:34;1.20;99.90
36586;DHT22;22591;48.314;11.562;2023-02-13T06:46:03;1.20;99.90
36586;DHT22;22591;48.314;11.562;2023-02-13T06:48:29;1.20;99.90
36586;DHT22;22591;48.314;11.562;2023-02-13T06:50:55;1.20;99.90
36586;DHT22;22591;48.314;11.562;2023-02-13T06:53:20;1.20;99.90
36586;DHT22;22591;48.314;11.562;2023-02-13T06:55:50;1.30;99.90
36586;DHT22;22591;48.314;11.562;2023-02-13T06:58:16;1.30;99.90
36586;DHT22;22591;48.314;11.562;2023-02-13T07:00:42;1.30;99.90
36586;DHT22;22591;48.314;11.562;2023-02-13T07:03:08;1.30;99.90
36586;DHT22;22591;48.314;11.562;2023-02-13T07:05:34;1.40;99.90
36586;DHT22;22591;48.314;11.562;2023-02-13T07:08:00;1.40;99.90
36586;DHT22;22591;48.314;11.562;2023-02-13T07:10:25;1.50;99.90
36586;DHT22;22591;48.314;11.562;2023-02-13T07:12:51;1.40;99.90
36586;DHT22;22591;48.314;11.562;2023-02-13T07:15:17;1.50;99.90
36586;DHT22;22591;48.314;11.562;2023-02-13T07:17:42;1.50;99.90
36586;DHT22;22591;48.314;11.562;2023-02-13T07:20:08;1.50;99.90
36586;DHT22;22591;48.314;11.562;2023-02-13T07:22:34;1.60;99.90
36586;DHT22;22591;48.314;11.562;2023-02-13T07:25:00;1.60;99.90
36586;DHT22;22591;48.314;11.562;2023-02-13T07:27:26;1.60;99.90
36586;DHT22;22591;48.314;11.562;2023-02-13T07:29:56;1.50;99.90
36586;DHT22;22591;48.314;11.562;2023-02-13T07:32:23;1.70;99.90
36586;DHT22;22591;48.314;11.562;2023-02-13T07:34:48;1.60;99.90
36586;DHT22;22591;48.314;11.562;2023-02-13T07:37:14;1.60;99.90
36586;DHT22;22591;48.314;11.562;2023-02-13T07:39:39;1.50;99.90
36586;DHT22;22591;48.314;11.562;2023-02-13T07:42:05;1.60;99.90
36586;DHT22;22591;48.314;11.562;2023-02-13T07:44:31;1.60;99.90
36586;DHT22;22591;48.314;11.562;2023-02-13T07:46:57;1.60;99.90
36586;DHT22;22591;48.314;11.562;2023-02-13T07:49:22;1.60;99.90
36586;DHT22;22591;48.314;11.562;2023-02-13T07:51:48;1.50;99.90
36586;DHT22;22591;48.314;11.562;2023-02-13T07:54:14;1.60;99.90
36586;DHT22;22591;48.314;11.562;2023-02-13T07:56:39;1.70;99.90
36586;DHT22;22591;48.314;11.562;2023-02-13T07:59:05;1.80;99.90
36586;DHT22;22591;48.314;11.562;2023-02-13T08:01:30;1.90;99.90
36586;DHT22;22591;48.314;11.562;2023-02-13T08:03:56;1.90;99.90
36586;DHT22;22591;48.314;11.562;2023-02-13T08:06:21;2.00;99.90
36586;DHT22;22591;48.314;11.562;2023-02-13T08:08:47;2.00;99.90
36586;DHT22;22591;48.314;11.562;2023-02-13T08:11:27;2.10;99.90
36586;DHT22;22591;48.314;11.562;2023-02-13T08:14:13;2.10;99.90
36586;DHT22;22591;48.314;11.562;2023-02-13T08:16:39;2.00;99.90
36586;DHT22;22591;48.314;11.562;2023-02-13T08:19:04;2.10;99.90
36586;DHT22;22591;48.314;11.562;2023-02-13T08:21:30;2.10;99.90
36586;DHT22;22591;48.314;11.562;2023-02-13T08:23:55;2.30;99.90
36586;DHT22;22591;48.314;11.562;2023-02-13T08:26:21;2.30;99.90
36586;DHT22;22591;48.314;11.562;2023-02-13T08:28:47;2.40;99.90
36586;DHT22;22591;48.314;11.562;2023-02-13T08:31:12;2.60;99.90
36586;DHT22;22591;48.314;11.562;2023-02-13T08:33:38;2.60;99.90
36586;DHT22;22591;48.314;11.562;2023-02-13T08:36:06;2.40;99.90
36586;DHT22;22591;48.314;11.562;2023-02-13T08:38:31;2.40;99.90
36586;DHT22;22591;48.314;11.562;2023-02-13T08:40:57;2.40;99.90
36586;DHT22;22591;48.314;11.562;2023-02-13T08:43:23;2.50;99.90
36586;DHT22;22591;48.314;11.562;2023-02-13T08:45:49;2.80;99.90
36586;DHT22;22591;48.314;11.562;2023-02-13T08:48:14;2.90;99.90
36586;DHT22;22591;48.314;11.562;2023-02-13T08:50:40;3.00;99.90
36586;DHT22;22591;48.314;11.562;2023-02-13T08:53:06;2.90;99.90
36586;DHT22;22591;48.314;11.562;2023-02-13T08:55:32;2.90;99.90
36586;DHT22;22591;48.314;11.562;2023-02-13T08:58:02;3.00;99.90
36586;DHT22;22591;48.314;11.562;2023-02-13T09:00:28;3.20;99.90
36586;DHT22;22591;48.314;11.562;2023-02-13T09:02:53;3.20;99.90
36586;DHT22;22591;48.314;11.562;2023-02-13T09:05:19;3.20;99.90
36586;DHT22;22591;48.314;11.562;2023-02-13T09:07:45;3.30;99.90
36586;DHT22;22591;48.314;11.562;2023-02-13T09:10:10;3.40;99.90
36586;DHT22;22591;48.314;11.562;2023-02-13T09:12:36;3.40;99.90
36586;DHT22;22591;48.314;11.562;2023-02-13T09:15:02;3.40;99.90
36586;DHT22;22591;48.314;11.562;2023-02-13T09:17:27;3.40;99.90
36586;DHT22;22591;48.314;11.562;2023-02-13T09:19:53;3.30;99.90
36586;DHT22;22591;48.314;11.562;2023-02-13T09:22:18;3.40;99.90
36586;DHT22;22591;48.314;11.562;2023-02-13T09:24:44;3.60;99.90
36586;DHT22;22591;48.314;11.562;2023-02-13T09:27:09;3.70;99.90
36586;DHT22;22591;48.314;11.562;2023-02-13T09:29:35;3.80;99.90
36586;DHT22;22591;48.314;11.562;2023-02-13T09:32:00;4.00;99.90
36586;DHT22;22591;48.314;11.562;2023-02-13T09:34:32;3.80;99.90
36586;DHT22;22591;48.314;11.562;2023-02-13T09:36:57;3.60;99.90
36586;DHT22;22591;48.314;11.562;2023-02-13T09:39:23;3.60;99.90
36586;DHT22;22591;48.314;11.562;2023-02-13T09:41:49;3.70;99.90
36586;DHT22;22591;48.314;11.562;2023-02-13T09:44:21;3.80;99.90
36586;DHT22;22591;48.314;11.562;2023-02-13T09:47:05;3.90;99.90
36586;DHT22;22591;48.314;11.562;2023-02-13T09:49:33;4.00;99.90
36586;DHT22;22591;48.314;11.562;2023-02-13T09:51:59;3.90;99.90
36586;DHT22;22591;48.314;11.562;2023-02-13T09:54:26;3.90;99.90
36586;DHT22;22591;48.314;11.562;2023-02-13T09:57:02;3.90;99.90
36586;DHT22;22591;48.314;11.562;2023-02-13T10:10:51;4.20;99.90
36586;DHT22;22591;48.314;11.562;2023-02-13T10:17:06;4.20;99.90
36586;DHT22;22591;48.314;11.562;2023-02-13T10:19:18;4.30;99.90
36586;DHT22;22591;48.314;11.562;2023-02-13T10:21:55;4.40;99.90
36586;DHT22;22591;48.314;11.562;2023-02-13T10:27:25;4.60;99.90
36586;DHT22;22591;48.314;11.562;2023-02-13T10:30:07;4.60;99.90
36586;DHT22;22591;48.314;11.562;2023-02-13T10:36:03;4.80;99.90
36586;DHT22;22591;48.314;11.562;2023-02-13T10:38:31;5.00;99.90
36586;DHT22;22591;48.314;11.562;2023-02-13T10:41:34;4.80;99.90
36586;DHT22;22591;48.314;11.562;2023-02-13T10:44:13;4.70;99.90
36586;DHT22;22591;48.314;11.562;2023-02-13T10:52:41;4.50;99.90
36586;DHT22;22591;48.314;11.562;2023-02-13T11:00:57;4.90;99.90
36586;DHT22;22591;48.314;11.562;2023-02-13T11:03:26;5.00;99.90
36586;DHT22;22591;48.314;11.562;2023-02-13T11:05:53;5.10;99.90
36586;DHT22;22591;48.314;11.562;2023-02-13T11:08:20;5.20;99.90
36586;DHT22;22591;48.314;11.562;2023-02-13T11:10:46;5.30;99.90
36586;DHT22;22591;48.314;11.562;2023-02-13T11:13:30;5.10;99.90
36586;DHT22;22591;48.314;11.562;2023-02-13T11:18:29;4.60;99.90
36586;DHT22;22591;48.314;11.562;2023-02-13T11:21:08;4.70;99.90
36586;DHT22;22591;48.314;11.562;2023-02-13T11:23:53;4.60;99.90
36586;DHT22;22591;48.314;11.562;2023-02-13T11:26:34;4.70;99.90
36586;DHT22;22591;48.314;11.562;2023-02-13T11:29:05;4.50;99.90
36586;DHT22;22591;48.314;11.562;2023-02-13T11:31:36;4.40;99.90
36586;DHT22;22591;48.314;11.562;2023-02-13T11:34:24;4.60;99.90
36586;DHT22;22591;48.314;11.562;2023-02-13T11:37:17;4.60;99.90
36586;DHT22;22591;48.314;11.562;2023-02-13T11:39:45;4.60;99.90
36586;DHT22;22591;48.314;11.562;2023-02-13T11:44:53;4.70;99.90
36586;DHT22;22591;48.314;11.562;2023-02-13T11:47:39;4.90;99.90
36586;DHT22;22591;48.314;11.562;2023-02-13T11:50:30;5.10;99.90
36586;DHT22;22591;48.314;11.562;2023-02-13T11:53:07;5.30;99.90
36586;DHT22;22591;48.314;11.562;2023-02-13T11:55:40;5.10;99.90
36586;DHT22;22591;48.314;11.562;2023-02-13T12:00:37;4.60;99.90
36586;DHT22;22591;48.314;11.562;2023-02-13T12:08:33;4.70;99.90
36586;DHT22;22591;48.314;11.562;2023-02-13T12:10:59;4.90;99.90
36586;DHT22;22591;48.314;11.562;2023-02-13T12:13:34;5.10;99.90
36586;DHT22;22591;48.314;11.562;2023-02-13T12:16:10;5.20;99.90
36586;DHT22;22591;48.314;11.562;2023-02-13T12:18:48;5.30;99.90
36586;DHT22;22591;48.314;11.562;2023-02-13T12:35:31;5.10;99.90
36586;DHT22;22591;48.314;11.562;2023-02-13T12:43:39;5.00;99.90
36586;DHT22;22591;48.314;11.562;2023-02-13T12:46:21;5.10;99.90
36586;DHT22;22591;48.314;11.562;2023-02-13T12:48:52;5.00;99.90
36586;DHT22;22591;48.314;11.562;2023-02-13T12:59:55;4.90;99.90
36586;DHT22;22591;48.314;11.562;2023-02-13T13:20:47;4.50;99.90
36586;DHT22;22591;48.314;11.562;2023-02-13T13:26:14;5.00;99.90
36586;DHT22;22591;48.314;11.562;2023-02-13T13:28:45;5.20;99.90
36586;DHT22;22591;48.314;11.562;2023-02-13T13:31:12;5.10;99.90
36586;DHT22;22591;48.314;11.562;2023-02-13T13:33:44;5.10;99.90
36586;DHT22;22591;48.314;11.562;2023-02-13T13:42:03;5.00;99.90
36586;DHT22;22591;48.314;11.562;2023-02-13T13:47:38;5.00;99.90
36586;DHT22;22591;48.314;11.562;2023-02-13T13:50:11;4.80;99.90
36586;DHT22;22591;48.314;11.562;2023-02-13T13:53:03;4.70;99.90
36586;DHT22;22591;48.314;11.562;2023-02-13T13:56:02;4.80;99.90
36586;DHT22;22591;48.314;11.562;2023-02-13T13:58:39;4.70;99.90
36586;DHT22;22591;48.314;11.562;2023-02-13T14:11:51;5.30;99.90
36586;DHT22;22591;48.314;11.562;2023-02-13T14:14:43;5.30;99.90
36586;DHT22;22591;48.314;11.562;2023-02-13T14:17:12;5.40;99.90
36586;DHT22;22591;48.314;11.562;2023-02-13T14:19:39;5.40;99.90
36586;DHT22;22591;48.314;11.562;2023-02-13T14:22:32;5.20;99.90
36586;DHT22;22591;48.314;11.562;2023-02-13T14:25:00;5.10;99.90
36586;DHT22;22591;48.314;11.562;2023-02-13T14:27:29;4.80;99.90
36586;DHT22;22591;48.314;11.562;2023-02-13T14:29:56;4.70;99.90
36586;DHT22;22591;48.314;11.562;2023-02-13T14:32:27;5.00;99.90
36586;DHT22;22591;48.314;11.562;2023-02-13T14:34:58;5.10;99.90
36586;DHT22;22591;48.314;11.562;2023-02-13T14:37:35;5.20;99.90
36586;DHT22;22591;48.314;11.562;2023-02-13T14:42:47;5.20;99.90
36586;DHT22;22591;48.314;11.562;2023-02-13T14:45:25;5.20;99.90
36586;DHT22;22591;48.314;11.562;2023-02-13T14:47:54;5.10;99.90
36586;DHT22;22591;48.314;11.562;2023-02-13T14:50:27;4.90;99.90
36586;DHT22;22591;48.314;11.562;2023-02-13T14:52:56;4.90;99.90
36586;DHT22;22591;48.314;11.562;2023-02-13T14:55:32;5.00;99.90
36586;DHT22;22591;48.314;11.562;2023-02-13T14:58:12;5.10;99.90
36586;DHT22;22591;48.314;11.562;2023-02-13T15:00:52;5.20;99.90
36586;DHT22;22591;48.314;11.562;2023-02-13T15:05:49;5.00;99.90
36586;DHT22;22591;48.314;11.562;2023-02-13T15:08:21;5.10;99.90
36586;DHT22;22591;48.314;11.562;2023-02-13T15:10:50;5.10;99.90
36586;DHT22;22591;48.314;11.562;2023-02-13T15:13:19;5.10;99.90
36586;DHT22;22591;48.314;11.562;2023-02-13T15:16:02;5.10;99.90
36586;DHT22;22591;48.314;11.562;2023-02-13T15:18:32;5.10;99.90
36586;DHT22;22591;48.314;11.562;2023-02-13T15:21:00;5.10;99.90
36586;DHT22;22591;48.314;11.562;2023-02-13T15:23:29;5.00;99.90
36586;DHT22;22591;48.314;11.562;2023-02-13T15:26:06;4.70;99.90
36586;DHT22;22591;48.314;11.562;2023-02-13T15:28:33;4.50;99.90
36586;DHT22;22591;48.314;11.562;2023-02-13T15:31:18;4.30;99.90
36586;DHT22;22591;48.314;11.562;2023-02-13T15:33:47;4.10;99.90
36586;DHT22;22591;48.314;11.562;2023-02-13T15:38:43;4.00;99.90
36586;DHT22;22591;48.314;11.562;2023-02-13T15:41:22;3.90;99.90
36586;DHT22;22591;48.314;11.562;2023-02-13T15:43:52;3.80;99.90
36586;DHT22;22591;48.314;11.562;2023-02-13T15:46:24;3.80;99.90
36586;DHT22;22591;48.314;11.562;2023-02-13T15:48:55;3.70;99.90
36586;DHT22;22591;48.314;11.562;2023-02-13T15:51:24;3.60;99.90
36586;DHT22;22591;48.314;11.562;2023-02-13T15:56:16;3.80;99.90
36586;DHT22;22591;48.314;11.562;2023-02-13T15:58:42;3.90;99.90
36586;DHT22;22591;48.314;11.562;2023-02-13T16:01:08;4.00;99.90
36586;DHT22;22591;48.314;11.562;2023-02-13T16:03:35;4.00;99.90
36586;DHT22;22591;48.314;11.562;2023-02-13T16:06:04;4.00;99.90
36586;DHT22;22591;48.314;11.562;2023-02-13T16:08:34;4.00;99.90
36586;DHT22;22591;48.314;11.562;2023-02-13T16:14:16;4.00;99.90
36586;DHT22;22591;48.314;11.562;2023-02-13T16:17:11;3.90;99.90
36586;DHT22;22591;48.314;11.562;2023-02-13T16:19:50;3.90;99.90
36586;DHT22;22591;48.314;11.562;2023-02-13T16:25:36;3.90;99.90
36586;DHT22;22591;48.314;11.562;2023-02-13T16:28:11;3.90;99.90
36586;DHT22;22591;48.314;11.562;2023-02-13T16:30:42;3.90;99.90
36586;DHT22;22591;48.314;11.562;2023-02-13T16:35:52;3.80;99.90
36586;DHT22;22591;48.314;11.562;2023-02-13T16:41:27;3.80;99.90
36586;DHT22;22591;48.314;11.562;2023-02-13T16:43:52;3.80;99.90
36586;DHT22;22591;48.314;11.562;2023-02-13T16:51:53;3.60;99.90
36586;DHT22;22591;48.314;11.562;2023-02-13T16:54:24;3.60;99.90
36586;DHT22;22591;48.314;11.562;2023-02-13T16:56:55;3.70;99.90
36586;DHT22;22591;48.314;11.562;2023-02-13T17:04:41;3.60;99.90
36586;DHT22;22591;48.314;11.562;2023-02-13T17:07:15;3.60;99.90
36586;DHT22;22591;48.314;11.562;2023-02-13T17:09:41;3.50;99.90
36586;DHT22;22591;48.314;11.562;2023-02-13T17:12:12;3.30;99.90
36586;DHT22;22591;48.314;11.562;2023-02-13T17:14:40;3.20;99.90
36586;DHT22;22591;48.314;11.562;2023-02-13T17:17:27;3.10;99.90
36586;DHT22;22591;48.314;11.562;2023-02-13T17:19:53;3.10;99.90
36586;DHT22;22591;48.314;11.562;2023-02-13T17:22:26;3.20;99.90
36586;DHT22;22591;48.314;11.562;2023-02-13T17:24:54;3.20;99.90
36586;DHT22;22591;48.314;11.562;2023-02-13T17:27:20;3.30;99.90
36586;DHT22;22591;48.314;11.562;2023-02-13T17:29:45;3.40;99.90
36586;DHT22;22591;48.314;11.562;2023-02-13T17:32:16;3.30;99.90
36586;DHT22;22591;48.314;11.562;2023-02-13T17:34:43;3.30;99.90
36586;DHT22;22591;48.314;11.562;2023-02-13T17:37:31;3.30;99.90
36586;DHT22;22591;48.314;11.562;2023-02-13T17:39:57;3.30;99.90
36586;DHT22;22591;48.314;11.562;2023-02-13T17:42:27;3.20;99.90
36586;DHT22;22591;48.314;11.562;2023-02-13T17:44:55;3.30;99.90
36586;DHT22;22591;48.314;11.562;2023-02-13T17:47:21;3.30;99.90
36586;DHT22;22591;48.314;11.562;2023-02-13T17:49:47;3.30;99.90
36586;DHT22;22591;48.314;11.562;2023-02-13T17:52:17;3.30;99.90
36586;DHT22;22591;48.314;11.562;2023-02-13T17:54:44;3.30;99.90
36586;DHT22;22591;48.314;11.562;2023-02-13T17:57:11;3.40;99.90
36586;DHT22;22591;48.314;11.562;2023-02-13T17:59:36;3.40;99.90
36586;DHT22;22591;48.314;11.562;2023-02-13T18:02:02;3.40;99.90
36586;DHT22;22591;48.314;11.562;2023-02-13T18:04:27;3.30;99.90
36586;DHT22;22591;48.314;11.562;2023-02-13T18:06:53;3.40;99.90
36586;DHT22;22591;48.314;11.562;2023-02-13T18:09:19;3.40;99.90
36586;DHT22;22591;48.314;11.562;2023-02-13T18:11:47;3.40;99.90
36586;DHT22;22591;48.314;11.562;2023-02-13T18:14:13;3.40;99.90
36586;DHT22;22591;48.314;11.562;2023-02-13T18:16:39;3.40;99.90
36586;DHT22;22591;48.314;11.562;2023-02-13T18:19:04;3.40;99.90
36586;DHT22;22591;48.314;11.562;2023-02-13T18:21:30;3.30;99.90
36586;DHT22;22591;48.314;11.562;2023-02-13T18:23:56;3.30;99.90
36586;DHT22;22591;48.314;11.562;2023-02-13T18:26:21;3.30;99.90
36586;DHT22;22591;48.314;11.562;2023-02-13T18:28:47;3.30;99.90
36586;DHT22;22591;48.314;11.562;2023-02-13T18:31:17;3.10;99.90
36586;DHT22;22591;48.314;11.562;2023-02-13T18:33:42;3.00;99.90
36586;DHT22;22591;48.314;11.562;2023-02-13T18:36:08;3.10;99.90
36586;DHT22;22591;48.314;11.562;2023-02-13T18:38:33;3.10;99.90
36586;DHT22;22591;48.314;11.562;2023-02-13T18:40:59;3.10;99.90
36586;DHT22;22591;48.314;11.562;2023-02-13T18:43:25;3.00;99.90
36586;DHT22;22591;48.314;11.562;2023-02-13T18:45:50;2.90;99.90
36586;DHT22;22591;48.314;11.562;2023-02-13T18:48:16;2.80;99.90
36586;DHT22;22591;48.314;11.562;2023-02-13T18:50:41;2.60;99.90
36586;DHT22;22591;48.314;11.562;2023-02-13T18:53:07;2.60;99.90
36586;DHT22;22591;48.314;11.562;2023-02-13T18:55:33;2.60;99.90
36586;DHT22;22591;48.314;11.562;2023-02-13T18:57:59;2.50;99.90
36586;DHT22;22591;48.314;11.562;2023-02-13T19:00:25;2.50;99.90